Time;durP1;ratioP1;P1;durP2;ratioP2;P2;SDS_P1;SDS_P2;PMS_P1;PMS_P2;Temp;Humidity;BMP_temperature;BMP_pressure;BME280_temperature;BME280_humidity;BME280_pressure;Samples;Min_cycle;Max_cycle;Signal;HPM_P1;HPM_P2
2023/12/21 00:02:19;;;;;;;;;;;;;;;-2.25;100.00;96686.92;110547;1243;60527;-75
2023/12/21 00:04:49;;;;;;;;;;;;;;;-2.24;100.00;96685.02;110540;1239;72034;-75
2023/12/21 00:07:18;;;;;;;;;;;;;;;-2.22;100.00;96688.15;110571;1238;69008;-74
2023/12/21 00:09:49;;;;;;;;;;;;;;;-2.21;100.00;96687.81;110607;1242;69196;-73
2023/12/21 00:12:18;;;;;;;;;;;;;;;-2.19;100.00;96690.63;110515;1242;60547;-73
2023/12/21 00:14:48;;;;;;;;;;;;;;;-2.18;100.00;96696.08;110614;1238;60582;-73
2023/12/21 00:17:17;;;;;;;;;;;;;;;-2.17;100.00;96703.54;110708;1245;71989;-74
2023/12/21 00:19:47;;;;;;;;;;;;;;;-2.17;100.00;96704.06;110544;1242;69250;-74
2023/12/21 00:22:17;;;;;;;;;;;;;;;-2.18;100.00;96702.88;110692;1239;69234;-74
2023/12/21 00:24:47;;;;;;;;;;;;;;;-2.19;100.00;96704.27;110503;1242;60581;-74
2023/12/21 00:27:17;;;;;;;;;;;;;;;-2.21;100.00;96707.26;110508;1239;60515;-74
2023/12/21 00:29:47;;;;;;;;;;;;;;;-2.20;100.00;96709.29;110524;1239;72275;-73
2023/12/21 00:32:16;;;;;;;;;;;;;;;-2.20;100.00;96713.02;110585;1239;69433;-73
2023/12/21 00:34:49;;;;;;;;;;;;;;;-2.17;100.00;96717.38;110559;1240;68978;-74
2023/12/21 00:37:21;;;;;;;;;;;;;;;-2.19;100.00;96715.02;110539;1239;60446;-75
2023/12/21 00:39:52;;;;;;;;;;;;;;;-2.18;100.00;96720.46;110595;1239;60504;-75
2023/12/21 00:42:25;;;;;;;;;;;;;;;-2.21;100.00;96716.83;110595;1240;72259;-75
2023/12/21 00:44:54;;;;;;;;;;;;;;;-2.22;100.00;96712.23;110563;1239;69122;-74
2023/12/21 00:47:25;;;;;;;;;;;;;;;-2.23;100.00;96714.65;110580;1239;69297;-75
2023/12/21 00:50:00;;;;;;;;;;;;;;;-2.22;100.00;96717.71;110678;1239;60443;-75
2023/12/21 00:52:30;;;;;;;;;;;;;;;-2.24;100.00;96710.08;110735;1240;60494;-75
2023/12/21 00:55:00;;;;;;;;;;;;;;;-2.23;100.00;96704.78;110719;1239;72536;-75
2023/12/21 00:57:33;;;;;;;;;;;;;;;-2.24;100.00;96698.51;110768;1239;68207;-75
2023/12/21 01:00:05;;;;;;;;;;;;;;;-2.25;100.00;96699.39;110637;1239;69411;-74
2023/12/21 01:02:36;;;;;;;;;;;;;;;-2.27;100.00;96698.91;110599;1243;60525;-74
2023/12/21 01:05:06;;;;;;;;;;;;;;;-2.30;100.00;96707.41;110631;1242;60498;-73
2023/12/21 01:07:35;;;;;;;;;;;;;;;-2.31;100.00;96704.34;110692;1247;72233;-74
2023/12/21 01:10:08;;;;;;;;;;;;;;;-2.30;100.00;96708.25;110708;1237;69168;-74
2023/12/21 01:12:40;;;;;;;;;;;;;;;-2.28;100.00;96708.52;110707;1239;69091;-74
2023/12/21 01:15:12;;;;;;;;;;;;;;;-2.26;100.00;96708.11;110687;1240;60520;-75
2023/12/21 01:17:43;;;;;;;;;;;;;;;-2.22;100.00;96708.16;110759;1239;60484;-75
2023/12/21 01:20:13;;;;;;;;;;;;;;;-2.21;100.00;96711.52;110737;1239;72079;-74
2023/12/21 01:22:44;;;;;;;;;;;;;;;-2.20;100.00;96709.11;110694;1243;69242;-75
2023/12/21 01:25:13;;;;;;;;;;;;;;;-2.15;100.00;96708.09;110699;1241;69155;-75
2023/12/21 01:27:44;;;;;;;;;;;;;;;-2.13;100.00;96699.81;110645;1238;60511;-75
2023/12/21 01:30:14;;;;;;;;;;;;;;;-2.10;100.00;96698.86;110487;1242;60439;-75
2023/12/21 01:32:44;;;;;;;;;;;;;;;-2.07;100.00;96697.58;110719;1239;72377;-74
2023/12/21 01:35:16;;;;;;;;;;;;;;;-2.06;100.00;96702.81;110750;1241;69494;-74
2023/12/21 01:37:47;;;;;;;;;;;;;;;-2.04;100.00;96692.00;110712;1238;68580;-73
2023/12/21 01:40:17;;;;;;;;;;;;;;;-2.02;100.00;96690.74;110686;1245;60503;-75
2023/12/21 01:42:48;;;;;;;;;;;;;;;-1.99;100.00;96693.73;110671;1239;61194;-73
2023/12/21 01:45:20;;;;;;;;;;;;;;;-1.96;100.00;96697.17;110694;1238;72207;-73
2023/12/21 01:47:51;;;;;;;;;;;;;;;-1.95;100.00;96690.48;110715;1239;69204;-73
2023/12/21 01:50:21;;;;;;;;;;;;;;;-1.94;100.00;96693.56;110608;1244;69590;-73
2023/12/21 01:52:55;;;;;;;;;;;;;;;-1.93;100.00;96690.77;110563;1239;497672;-74
2023/12/21 01:55:30;;;;;;;;;;;;;;;-1.95;100.00;96694.25;111094;1239;60463;-74
2023/12/21 01:58:08;;;;;;;;;;;;;;;-1.96;100.00;96694.11;111199;1239;71442;-74
2023/12/21 02:00:39;;;;;;;;;;;;;;;-1.94;100.00;96695.08;110812;1242;69216;-73
2023/12/21 02:03:10;;;;;;;;;;;;;;;-1.94;100.00;96693.04;110869;1239;69351;-74
2023/12/21 02:05:41;;;;;;;;;;;;;;;-1.96;100.00;96689.67;110744;1241;60553;-74
2023/12/21 02:08:11;;;;;;;;;;;;;;;-1.93;100.00;96691.64;110797;1239;60572;-74
2023/12/21 02:10:40;;;;;;;;;;;;;;;-1.92;100.00;96687.17;111256;1239;72416;-75
2023/12/21 02:13:15;;;;;;;;;;;;;;;-1.93;100.00;96687.36;110889;1242;68463;-74
2023/12/21 02:15:45;;;;;;;;;;;;;;;-1.91;100.00;96690.88;110687;1239;69330;-75
2023/12/21 02:18:18;;;;;;;;;;;;;;;-1.89;100.00;96685.01;110621;1241;60564;-75
2023/12/21 02:20:48;;;;;;;;;;;;;;;-1.89;100.00;96686.55;110653;1237;60467;-74
2023/12/21 02:23:20;;;;;;;;;;;;;;;-1.90;100.00;96682.96;110730;1244;71246;-74
2023/12/21 02:25:49;;;;;;;;;;;;;;;-1.91;100.00;96677.03;110672;1239;68377;-73
2023/12/21 02:28:19;;;;;;;;;;;;;;;-1.97;100.00;96679.11;110589;1239;69405;-74
2023/12/21 02:30:51;;;;;;;;;;;;;;;-1.98;100.00;96677.83;110612;1238;60542;-74
2023/12/21 02:33:23;;;;;;;;;;;;;;;-1.99;100.00;96674.42;110555;1237;60521;-74
2023/12/21 02:35:53;;;;;;;;;;;;;;;-1.99;100.00;96677.84;110650;1238;72141;-74
2023/12/21 02:38:23;;;;;;;;;;;;;;;-1.98;100.00;96682.05;110720;1239;68347;-74
2023/12/21 02:40:54;;;;;;;;;;;;;;;-1.95;100.00;96686.74;110578;1238;68313;-73
2023/12/21 02:43:24;;;;;;;;;;;;;;;-1.99;100.00;96687.56;110616;1239;60607;-73
2023/12/21 02:45:58;;;;;;;;;;;;;;;-2.03;100.00;96682.56;110722;1239;60476;-73
2023/12/21 02:48:30;;;;;;;;;;;;;;;-2.04;100.00;96677.65;110573;1241;72242;-73
2023/12/21 02:51:00;;;;;;;;;;;;;;;-2.06;100.00;96670.73;110618;1239;68597;-73
2023/12/21 02:53:34;;;;;;;;;;;;;;;-2.05;100.00;96668.30;110554;1239;69326;-73
2023/12/21 02:56:06;;;;;;;;;;;;;;;-2.08;100.00;96669.60;110635;1238;60527;-73
2023/12/21 02:58:36;;;;;;;;;;;;;;;-2.12;100.00;96672.82;110760;1239;60475;-73
2023/12/21 03:01:07;;;;;;;;;;;;;;;-2.11;100.00;96678.40;110707;1238;71475;-73
2023/12/21 03:03:36;;;;;;;;;;;;;;;-2.07;100.00;96680.14;110629;1237;68479;-73
2023/12/21 03:06:07;;;;;;;;;;;;;;;-2.07;100.00;96674.17;110662;1238;67536;-74
2023/12/21 03:08:36;;;;;;;;;;;;;;;-2.08;100.00;96669.92;110564;1239;60472;-73
2023/12/21 03:11:06;;;;;;;;;;;;;;;-2.11;100.00;96666.09;110700;1239;60502;-73
2023/12/21 03:13:37;;;;;;;;;;;;;;;-2.12;100.00;96669.57;110667;1239;71479;-72
2023/12/21 03:16:07;;;;;;;;;;;;;;;-2.15;100.00;96672.73;110706;1240;69296;-75
2023/12/21 03:18:40;;;;;;;;;;;;;;;-2.17;100.00;96674.69;110622;1243;69410;-73
2023/12/21 03:21:10;;;;;;;;;;;;;;;-2.14;100.00;96676.29;110591;1237;60497;-73
2023/12/21 03:23:41;;;;;;;;;;;;;;;-2.07;100.00;96675.70;110587;1242;60502;-72
2023/12/21 03:26:15;;;;;;;;;;;;;;;-2.05;100.00;96675.13;110573;1239;72199;-73
2023/12/21 03:28:45;;;;;;;;;;;;;;;-2.02;100.00;96674.16;110638;1239;68498;-73
2023/12/21 03:31:17;;;;;;;;;;;;;;;-2.00;100.00;96677.02;110601;1239;68513;-73
2023/12/21 03:33:46;;;;;;;;;;;;;;;-2.04;100.00;96683.97;110628;1240;60526;-72
2023/12/21 03:36:17;;;;;;;;;;;;;;;-2.08;100.00;96685.81;110732;1239;60437;-73
2023/12/21 03:38:46;;;;;;;;;;;;;;;-2.02;100.00;96685.98;110603;1239;71489;-72
2023/12/21 03:41:15;;;;;;;;;;;;;;;-2.06;100.00;96688.30;110613;1239;69806;-72
2023/12/21 03:43:47;;;;;;;;;;;;;;;-2.03;100.00;96691.64;110715;1239;68521;-72
2023/12/21 03:46:18;;;;;;;;;;;;;;;-2.00;100.00;96684.69;110506;1241;60576;-73
2023/12/21 03:48:48;;;;;;;;;;;;;;;-1.97;100.00;96687.33;110594;1238;60537;-73
2023/12/21 03:51:18;;;;;;;;;;;;;;;-2.02;100.00;96690.07;110607;1239;72192;-72
2023/12/21 03:53:51;;;;;;;;;;;;;;;-1.97;100.00;96695.87;110630;1237;68371;-72
2023/12/21 03:56:20;;;;;;;;;;;;;;;-1.97;100.00;96692.60;110636;1239;68322;-72
2023/12/21 03:58:50;;;;;;;;;;;;;;;-2.02;100.00;96696.20;110581;1240;60454;-73
2023/12/21 04:01:26;;;;;;;;;;;;;;;-1.98;100.00;96693.02;110582;1238;60502;-73
2023/12/21 04:03:55;;;;;;;;;;;;;;;-1.94;100.00;96695.25;110609;1238;72124;-73
2023/12/21 04:06:25;;;;;;;;;;;;;;;-1.93;100.00;96696.41;110661;1239;69196;-73
2023/12/21 04:08:55;;;;;;;;;;;;;;;-1.88;100.00;96695.90;110601;1239;68603;-73
2023/12/21 04:11:25;;;;;;;;;;;;;;;-1.87;100.00;96696.35;110625;1247;60496;-73
2023/12/21 04:13:55;;;;;;;;;;;;;;;-1.84;100.00;96694.57;110659;1239;60874;-73
2023/12/21 04:16:26;;;;;;;;;;;;;;;-1.80;100.00;96695.79;110582;1242;72236;-73
2023/12/21 04:18:55;;;;;;;;;;;;;;;-1.79;100.00;96692.02;110593;1239;68584;-73
2023/12/21 04:21:25;;;;;;;;;;;;;;;-1.77;100.00;96700.62;110752;1239;68304;-73
2023/12/21 04:23:54;;;;;;;;;;;;;;;-1.74;100.00;96710.27;110680;1239;60444;-73
2023/12/21 04:26:26;;;;;;;;;;;;;;;-1.72;100.00;96712.08;110797;1240;60440;-73
2023/12/21 04:28:58;;;;;;;;;;;;;;;-1.72;100.00;96708.66;110601;1239;72110;-73
2023/12/21 04:31:27;;;;;;;;;;;;;;;-1.75;100.00;96712.68;110589;1239;69242;-73
2023/12/21 04:33:57;;;;;;;;;;;;;;;-1.78;100.00;96716.39;110562;1239;69262;-73
2023/12/21 04:36:27;;;;;;;;;;;;;;;-1.76;100.00;96711.21;110669;1237;60550;-73
2023/12/21 04:38:56;;;;;;;;;;;;;;;-1.76;100.00;96707.61;110594;1239;60485;-74
2023/12/21 04:41:26;;;;;;;;;;;;;;;-1.80;100.00;96708.77;110686;1238;72194;-74
2023/12/21 04:43:55;;;;;;;;;;;;;;;-1.80;100.00;96709.80;110652;1241;68439;-72
2023/12/21 04:46:25;;;;;;;;;;;;;;;-1.84;100.00;96707.71;110722;1239;69186;-72
2023/12/21 04:48:54;;;;;;;;;;;;;;;-1.81;100.00;96711.52;110649;1239;60940;-72
2023/12/21 04:51:23;;;;;;;;;;;;;;;-1.80;100.00;96715.94;110727;1239;60537;-74
2023/12/21 04:53:53;;;;;;;;;;;;;;;-1.80;100.00;96716.27;110580;1237;71426;-72
2023/12/21 04:56:24;;;;;;;;;;;;;;;-1.80;100.00;96714.05;110533;1238;69234;-73
2023/12/21 04:58:53;;;;;;;;;;;;;;;-1.72;100.00;96714.64;110625;1238;69573;-73
2023/12/21 05:01:22;;;;;;;;;;;;;;;-1.69;100.00;96714.53;110536;1240;60421;-73
2023/12/21 05:03:53;;;;;;;;;;;;;;;-1.68;100.00;96717.22;110576;1239;60559;-72
2023/12/21 05:06:22;;;;;;;;;;;;;;;-1.64;100.00;96713.15;110638;1239;72183;-72
2023/12/21 05:08:51;;;;;;;;;;;;;;;-1.66;100.00;96713.05;110652;1239;69140;-75
2023/12/21 05:11:21;;;;;;;;;;;;;;;-1.63;100.00;96711.05;110704;1238;69133;-74
2023/12/21 05:13:50;;;;;;;;;;;;;;;-1.58;100.00;96710.05;110692;1239;60489;-74
2023/12/21 05:16:19;;;;;;;;;;;;;;;-1.54;100.00;96709.88;110740;1238;60508;-74
2023/12/21 05:18:49;;;;;;;;;;;;;;;-1.53;100.00;96711.59;110588;1241;71229;-74
2023/12/21 05:21:19;;;;;;;;;;;;;;;-1.58;100.00;96715.51;110594;1237;69218;-72
2023/12/21 05:23:49;;;;;;;;;;;;;;;-1.56;100.00;96714.94;110464;1238;68677;-72
2023/12/21 05:26:17;;;;;;;;;;;;;;;-1.62;100.00;96714.43;110574;1238;60998;-73
2023/12/21 05:28:46;;;;;;;;;;;;;;;-1.65;100.00;96722.06;110697;1239;60485;-75
2023/12/21 05:31:24;;;;;;;;;;;;;;;-1.60;100.00;96724.31;110599;1238;71397;-74
2023/12/21 05:33:53;;;;;;;;;;;;;;;-1.61;100.00;96730.50;110637;1239;69786;-75
2023/12/21 05:36:23;;;;;;;;;;;;;;;-1.61;100.00;96731.51;110577;1241;69794;-73
2023/12/21 05:38:53;;;;;;;;;;;;;;;-1.62;100.00;96727.95;110595;1237;60547;-75
2023/12/21 05:41:22;;;;;;;;;;;;;;;-1.64;100.00;96736.21;110636;1239;60467;-73
2023/12/21 05:43:52;;;;;;;;;;;;;;;-1.70;100.00;96741.38;110589;1239;72235;-74
2023/12/21 05:46:22;;;;;;;;;;;;;;;-1.66;100.00;96735.77;110644;1240;69789;-71
2023/12/21 05:48:51;;;;;;;;;;;;;;;-1.65;100.00;96737.79;110635;1245;69204;-71
2023/12/21 05:51:20;;;;;;;;;;;;;;;-1.60;100.00;96746.84;110591;1239;60474;-71
2023/12/21 05:53:49;;;;;;;;;;;;;;;-1.53;100.00;96741.48;110598;1239;60527;-68
2023/12/21 05:56:18;;;;;;;;;;;;;;;-1.46;100.00;96734.90;110663;1239;71428;-68
2023/12/21 05:58:48;;;;;;;;;;;;;;;-1.41;100.00;96726.70;110614;1237;68563;-69
2023/12/21 06:01:17;;;;;;;;;;;;;;;-1.39;100.00;96730.19;110599;1241;69877;-69
2023/12/21 06:03:46;;;;;;;;;;;;;;;-1.38;100.00;96728.64;110623;1238;60553;-69
2023/12/21 06:06:15;;;;;;;;;;;;;;;-1.37;100.00;96727.05;110670;1237;60748;-68
2023/12/21 06:08:44;;;;;;;;;;;;;;;-1.34;100.00;96728.66;110440;1241;71209;-69
2023/12/21 06:11:13;;;;;;;;;;;;;;;-1.31;100.00;96740.02;110573;1239;69095;-69
2023/12/21 06:13:43;;;;;;;;;;;;;;;-1.26;100.00;96742.38;110575;1238;67735;-69
2023/12/21 06:16:12;;;;;;;;;;;;;;;-1.20;100.00;96745.09;110656;1238;60570;-69
2023/12/21 06:18:41;;;;;;;;;;;;;;;-1.15;100.00;96742.16;110664;1238;60478;-69
2023/12/21 06:21:10;;;;;;;;;;;;;;;-1.11;100.00;96747.15;110666;1238;72008;-69
2023/12/21 06:23:39;;;;;;;;;;;;;;;-1.10;100.00;96748.97;110552;1241;69010;-69
2023/12/21 06:26:08;;;;;;;;;;;;;;;-1.08;100.00;96750.42;110429;1238;69117;-69
2023/12/21 06:28:37;;;;;;;;;;;;;;;-1.05;100.00;96751.16;110566;1238;60509;-73
2023/12/21 06:31:08;;;;;;;;;;;;;;;-1.01;100.00;96754.11;110478;1241;60511;-80
2023/12/21 06:33:38;;;;;;;;;;;;;;;-1.00;100.00;96755.98;110455;1238;72201;-74
2023/12/21 06:36:07;;;;;;;;;;;;;;;-0.99;100.00;96755.41;110594;1239;70230;-74
2023/12/21 06:38:36;;;;;;;;;;;;;;;-0.98;100.00;96755.54;110764;1239;68396;-74
2023/12/21 06:41:04;;;;;;;;;;;;;;;-0.98;100.00;96750.94;110674;1238;60485;-75
2023/12/21 06:43:33;;;;;;;;;;;;;;;-0.98;100.00;96750.95;110656;1239;60521;-77
2023/12/21 06:46:02;;;;;;;;;;;;;;;-0.99;100.00;96755.91;110492;1242;72163;-74
2023/12/21 06:48:31;;;;;;;;;;;;;;;-0.99;100.00;96746.71;110619;1237;69231;-74
2023/12/21 06:51:00;;;;;;;;;;;;;;;-0.99;100.00;96741.59;110628;1240;68233;-75
2023/12/21 06:53:29;;;;;;;;;;;;;;;-1.01;100.00;96734.97;110631;1239;60527;-75
2023/12/21 06:55:58;;;;;;;;;;;;;;;-0.98;100.00;96742.20;110553;1239;60472;-75
2023/12/21 06:58:47;;;;;;;;;;;;;;;-0.95;100.00;96749.10;110720;1238;72178;-75
2023/12/21 07:01:16;;;;;;;;;;;;;;;-0.91;100.00;96748.95;110589;1238;68726;-74
2023/12/21 07:03:45;;;;;;;;;;;;;;;-0.91;100.00;96753.26;110596;1248;69116;-74
2023/12/21 07:06:13;;;;;;;;;;;;;;;-0.94;100.00;96749.23;110580;1241;60557;-74
2023/12/21 07:08:42;;;;;;;;;;;;;;;-0.93;100.00;96740.12;110554;1241;60546;-75
2023/12/21 07:11:11;;;;;;;;;;;;;;;-0.90;100.00;96734.03;110493;1241;72727;-74
2023/12/21 07:13:40;;;;;;;;;;;;;;;-0.88;100.00;96729.34;110787;1238;68477;-74
2023/12/21 07:16:10;;;;;;;;;;;;;;;-0.84;100.00;96727.64;110676;1247;69861;-75
2023/12/21 07:18:40;;;;;;;;;;;;;;;-0.79;100.00;96724.57;110567;1238;60502;-76
2023/12/21 07:21:09;;;;;;;;;;;;;;;-0.75;100.00;96721.64;110658;1246;60414;-74
2023/12/21 07:23:38;;;;;;;;;;;;;;;-0.68;100.00;96723.08;110505;1241;72101;-75
2023/12/21 07:26:06;;;;;;;;;;;;;;;-0.62;100.00;96726.11;110729;1239;69427;-76
2023/12/21 07:28:35;;;;;;;;;;;;;;;-0.57;100.00;96726.55;110694;1239;68466;-73
2023/12/21 07:31:04;;;;;;;;;;;;;;;-0.56;100.00;96729.10;110663;1237;60488;-73
2023/12/21 07:33:34;;;;;;;;;;;;;;;-0.54;100.00;96728.88;110575;1237;60492;-75
2023/12/21 07:36:07;;;;;;;;;;;;;;;-0.54;100.00;96729.88;110692;1238;71878;-75
2023/12/21 07:38:37;;;;;;;;;;;;;;;-0.58;100.00;96736.70;110702;1239;68775;-75
2023/12/21 07:41:10;;;;;;;;;;;;;;;-0.56;100.00;96738.89;110558;1239;69253;-75
2023/12/21 07:43:41;;;;;;;;;;;;;;;-0.57;100.00;96743.53;110636;1238;60500;-76
2023/12/21 07:46:10;;;;;;;;;;;;;;;-0.51;100.00;96741.94;110624;1239;60474;-76
2023/12/21 07:48:39;;;;;;;;;;;;;;;-0.47;100.00;96746.56;110541;1237;71352;-76
2023/12/21 07:51:11;;;;;;;;;;;;;;;-0.44;100.00;96749.04;110645;1239;68863;-76
2023/12/21 07:53:39;;;;;;;;;;;;;;;-0.41;100.00;96757.30;110457;1241;68483;-76
2023/12/21 07:56:09;;;;;;;;;;;;;;;-0.38;100.00;96755.83;110566;1238;60490;-76
2023/12/21 07:58:38;;;;;;;;;;;;;;;-0.32;100.00;96747.67;110661;1237;60440;-76
2023/12/21 08:01:07;;;;;;;;;;;;;;;-0.28;100.00;96749.06;110698;1239;72731;-75
2023/12/21 08:03:36;;;;;;;;;;;;;;;-0.22;100.00;96746.41;110661;1238;69212;-73
2023/12/21 08:06:05;;;;;;;;;;;;;;;-0.15;100.00;96752.48;110738;1239;69279;-73
2023/12/21 08:08:34;;;;;;;;;;;;;;;-0.14;100.00;96764.08;110575;1239;60505;-73
2023/12/21 08:11:11;;;;;;;;;;;;;;;-0.08;100.00;96765.73;110577;1239;60488;-72
2023/12/21 08:13:40;;;;;;;;;;;;;;;-0.07;100.00;96765.16;110568;1239;72059;-71
2023/12/21 08:16:09;;;;;;;;;;;;;;;-0.03;100.00;96764.84;110691;1239;69816;-71
2023/12/21 08:18:38;;;;;;;;;;;;;;;-0.09;100.00;96759.80;110549;1238;68346;-71
2023/12/21 08:21:06;;;;;;;;;;;;;;;-0.09;100.00;96751.70;110674;1239;60485;-71
2023/12/21 08:23:35;;;;;;;;;;;;;;;0.01;100.00;96751.30;110573;1240;60483;-70
2023/12/21 08:26:04;;;;;;;;;;;;;;;0.02;100.00;96741.17;110439;1238;72119;-70
2023/12/21 08:28:33;;;;;;;;;;;;;;;0.04;100.00;96733.86;110642;1239;69253;-71
2023/12/21 08:31:03;;;;;;;;;;;;;;;0.05;100.00;96730.74;110663;1239;69527;-71
2023/12/21 08:33:32;;;;;;;;;;;;;;;0.07;100.00;96728.43;110569;1239;60550;-71
2023/12/21 08:36:02;;;;;;;;;;;;;;;0.10;100.00;96722.67;110587;1237;60488;-71
2023/12/21 08:38:32;;;;;;;;;;;;;;;0.09;100.00;96717.39;110552;1246;71438;-71
2023/12/21 08:41:02;;;;;;;;;;;;;;;0.08;100.00;96712.99;110429;1241;69192;-71
2023/12/21 08:43:36;;;;;;;;;;;;;;;0.08;100.00;96705.42;110649;1239;68451;-71
2023/12/21 08:46:05;;;;;;;;;;;;;;;0.09;100.00;96692.56;110561;1238;60525;-71
2023/12/21 08:48:34;;;;;;;;;;;;;;;0.08;100.00;96692.27;110603;1237;60502;-71
2023/12/21 08:51:03;;;;;;;;;;;;;;;0.08;100.00;96695.02;110608;1237;71324;-71
2023/12/21 08:53:32;;;;;;;;;;;;;;;0.11;100.00;96706.19;110620;1239;69231;-71
2023/12/21 08:56:02;;;;;;;;;;;;;;;0.11;100.00;96703.95;110624;1239;69281;-71
2023/12/21 08:58:32;;;;;;;;;;;;;;;0.05;100.00;96697.52;110670;1238;60557;-71
2023/12/21 09:01:01;;;;;;;;;;;;;;;0.05;100.00;96694.95;110658;1239;60478;-70
2023/12/21 09:03:30;;;;;;;;;;;;;;;0.03;100.00;96692.46;110634;1238;71415;-71
2023/12/21 09:05:59;;;;;;;;;;;;;;;0.02;100.00;96691.16;110648;1239;69237;-71
2023/12/21 09:08:28;;;;;;;;;;;;;;;0.03;100.00;96689.06;110471;1238;68556;-71
2023/12/21 09:10:57;;;;;;;;;;;;;;;0.02;100.00;96684.63;110644;1239;60461;-71
2023/12/21 09:13:26;;;;;;;;;;;;;;;0.02;100.00;96683.76;110710;1238;60487;-71
2023/12/21 09:15:54;;;;;;;;;;;;;;;-0.00;100.00;96687.97;110701;1239;71416;-70
2023/12/21 09:18:23;;;;;;;;;;;;;;;-0.01;100.00;96690.73;110605;1237;69185;-71
2023/12/21 09:20:52;;;;;;;;;;;;;;;0.02;100.00;96686.86;110631;1239;68241;-71
2023/12/21 09:23:21;;;;;;;;;;;;;;;0.04;100.00;96696.20;110576;1238;60471;-71
2023/12/21 09:25:50;;;;;;;;;;;;;;;0.12;100.00;96700.32;110470;1241;60495;-71
2023/12/21 09:28:22;;;;;;;;;;;;;;;0.25;100.00;96699.23;110622;1238;72045;-71
2023/12/21 09:30:51;;;;;;;;;;;;;;;0.37;100.00;96695.64;110688;1239;67564;-72
2023/12/21 09:33:20;;;;;;;;;;;;;;;0.46;100.00;96684.78;110653;1239;69723;-72
2023/12/21 09:35:54;;;;;;;;;;;;;;;0.54;100.00;96671.23;110652;1238;60484;-72
2023/12/21 09:38:23;;;;;;;;;;;;;;;0.57;100.00;96659.27;110713;1238;60480;-72
2023/12/21 09:40:51;;;;;;;;;;;;;;;0.57;100.00;96657.08;110683;1246;72796;-72
2023/12/21 09:43:21;;;;;;;;;;;;;;;0.56;100.00;96654.00;110790;1239;69809;-72
2023/12/21 09:45:51;;;;;;;;;;;;;;;0.60;100.00;96646.62;110784;1239;69260;-72
2023/12/21 09:48:25;;;;;;;;;;;;;;;0.66;100.00;96644.80;110665;1239;60591;-71
2023/12/21 09:50:55;;;;;;;;;;;;;;;0.72;100.00;96641.23;110651;1239;60534;-72
2023/12/21 09:53:25;;;;;;;;;;;;;;;0.78;100.00;96640.11;110654;1239;72184;-72
2023/12/21 09:55:54;;;;;;;;;;;;;;;0.84;100.00;96637.10;110683;1238;69347;-71
2023/12/21 09:58:23;;;;;;;;;;;;;;;0.90;100.00;96634.76;110587;1238;69834;-71
2023/12/21 10:00:52;;;;;;;;;;;;;;;0.92;100.00;96633.80;110659;1239;60535;-71
2023/12/21 10:03:21;;;;;;;;;;;;;;;0.92;100.00;96632.26;110706;1239;60472;-71
2023/12/21 10:05:50;;;;;;;;;;;;;;;0.88;100.00;96627.31;110685;1239;71437;-71
2023/12/21 10:08:20;;;;;;;;;;;;;;;0.89;100.00;96626.75;110675;1239;69879;-72
2023/12/21 10:10:49;;;;;;;;;;;;;;;0.93;100.00;96623.64;110636;1237;69199;-71
2023/12/21 10:13:18;;;;;;;;;;;;;;;0.93;100.00;96624.13;110476;1241;60461;-71
2023/12/21 10:15:56;;;;;;;;;;;;;;;0.95;100.00;96625.61;110480;1237;60472;-71
2023/12/21 10:18:29;;;;;;;;;;;;;;;0.97;100.00;96626.73;110598;1238;72156;-72
2023/12/21 10:20:59;;;;;;;;;;;;;;;0.95;100.00;96630.92;110503;1238;69235;-71
2023/12/21 10:23:30;;;;;;;;;;;;;;;0.96;100.00;96632.93;110679;1238;69283;-71
2023/12/21 10:25:59;;;;;;;;;;;;;;;0.84;100.00;96628.50;110803;1239;60522;-72
2023/12/21 10:28:29;;;;;;;;;;;;;;;0.78;100.00;96634.13;110677;1241;60913;-72
2023/12/21 10:30:59;;;;;;;;;;;;;;;0.74;100.00;96639.27;110589;1239;72209;-71
2023/12/21 10:33:29;;;;;;;;;;;;;;;0.65;100.00;96635.58;110683;1241;67876;-71
2023/12/21 10:35:58;;;;;;;;;;;;;;;0.60;100.00;96629.12;110723;1238;68506;-72
2023/12/21 10:38:27;;;;;;;;;;;;;;;0.59;100.00;96616.30;110644;1237;60987;-72
2023/12/21 10:40:58;;;;;;;;;;;;;;;0.59;100.00;96616.83;110724;1238;60533;-72
2023/12/21 10:43:27;;;;;;;;;;;;;;;0.57;100.00;96615.02;110717;1239;72734;-72
2023/12/21 10:45:58;;;;;;;;;;;;;;;0.59;100.00;96615.09;110451;1238;68484;-72
2023/12/21 10:48:28;;;;;;;;;;;;;;;0.60;100.00;96620.70;110602;1239;69462;-72
2023/12/21 10:50:58;;;;;;;;;;;;;;;0.67;100.00;96614.56;110579;1238;60527;-72
2023/12/21 10:53:27;;;;;;;;;;;;;;;0.69;100.00;96603.66;110580;1239;60505;-71
2023/12/21 10:55:57;;;;;;;;;;;;;;;0.69;100.00;96599.03;110577;1238;72481;-71
2023/12/21 10:58:27;;;;;;;;;;;;;;;0.68;100.00;96589.33;110597;1238;69663;-72
2023/12/21 11:00:57;;;;;;;;;;;;;;;0.62;100.00;96589.59;110741;1239;69190;-71
2023/12/21 11:03:25;;;;;;;;;;;;;;;0.57;100.00;96591.69;110579;1239;60458;-71
2023/12/21 11:05:55;;;;;;;;;;;;;;;0.53;100.00;96589.48;110575;1237;60501;-71
2023/12/21 11:08:25;;;;;;;;;;;;;;;0.49;100.00;96589.35;110576;1237;72207;-71
2023/12/21 11:10:54;;;;;;;;;;;;;;;0.43;100.00;96585.30;110609;1238;68286;-71
2023/12/21 11:13:23;;;;;;;;;;;;;;;0.45;100.00;96578.88;110682;1238;69297;-71
2023/12/21 11:15:52;;;;;;;;;;;;;;;0.45;100.00;96571.85;110633;1239;60556;-73
2023/12/21 11:18:22;;;;;;;;;;;;;;;0.41;100.00;96571.34;110779;1239;60509;-71
2023/12/21 11:20:54;;;;;;;;;;;;;;;0.44;100.00;96571.19;110581;1237;71217;-71
2023/12/21 11:23:24;;;;;;;;;;;;;;;0.48;100.00;96570.66;110601;1238;68278;-71
2023/12/21 11:25:56;;;;;;;;;;;;;;;0.51;100.00;96565.57;110670;1238;69273;-71
2023/12/21 11:28:32;;;;;;;;;;;;;;;0.55;100.00;96562.46;110617;1238;60557;-71
2023/12/21 11:31:12;;;;;;;;;;;;;;;0.55;100.00;96561.09;110579;1238;60492;-71
2023/12/21 11:33:42;;;;;;;;;;;;;;;0.52;100.00;96559.69;110670;1240;72174;-71
2023/12/21 11:36:21;;;;;;;;;;;;;;;0.53;100.00;96561.21;110609;1239;69801;-71
2023/12/21 11:38:52;;;;;;;;;;;;;;;0.56;100.00;96552.17;110614;1239;69270;-71
2023/12/21 11:41:22;;;;;;;;;;;;;;;0.60;100.00;96552.83;110738;1239;60500;-72
2023/12/21 11:44:01;;;;;;;;;;;;;;;0.64;100.00;96552.62;110804;1238;60523;-71
2023/12/21 11:46:32;;;;;;;;;;;;;;;0.70;100.00;96545.33;110635;1239;72155;-71
2023/12/21 11:49:01;;;;;;;;;;;;;;;0.75;100.00;96538.05;110633;1238;69295;-71
2023/12/21 11:51:31;;;;;;;;;;;;;;;0.81;100.00;96532.80;110641;1239;69246;-71
2023/12/21 11:54:06;;;;;;;;;;;;;;;0.85;100.00;96530.36;110580;1241;60528;-71
2023/12/21 11:56:35;;;;;;;;;;;;;;;0.86;100.00;96523.79;110663;1239;60544;-72
2023/12/21 11:59:06;;;;;;;;;;;;;;;0.87;100.00;96515.16;110736;1239;72876;-73
2023/12/21 12:01:37;;;;;;;;;;;;;;;0.84;100.00;96504.52;110742;1238;69149;-74
2023/12/21 12:04:10;;;;;;;;;;;;;;;0.80;100.00;96503.69;111508;1238;68792;-71
2023/12/21 12:06:40;;;;;;;;;;;;;;;0.76;100.00;96503.50;111299;1237;60469;-71
2023/12/21 12:09:09;;;;;;;;;;;;;;;0.79;100.00;96493.43;111174;1239;60534;-71
2023/12/21 12:11:39;;;;;;;;;;;;;;;0.79;100.00;96481.23;110762;1239;72174;-71
2023/12/21 12:14:11;;;;;;;;;;;;;;;0.80;100.00;96473.49;110800;1239;69483;-72
2023/12/21 12:16:40;;;;;;;;;;;;;;;0.80;100.00;96464.58;110724;1239;69104;-72
2023/12/21 12:19:10;;;;;;;;;;;;;;;0.82;100.00;96463.62;110742;1237;60550;-72
2023/12/21 12:21:39;;;;;;;;;;;;;;;0.81;100.00;96461.91;110574;1239;60399;-73
2023/12/21 12:24:08;;;;;;;;;;;;;;;0.81;100.00;96463.13;110731;1238;72778;-74
2023/12/21 12:26:37;;;;;;;;;;;;;;;0.83;100.00;96457.88;110762;1239;69219;-73
2023/12/21 12:29:06;;;;;;;;;;;;;;;0.83;100.00;96459.79;110602;1239;69299;-73
2023/12/21 12:31:35;;;;;;;;;;;;;;;0.84;100.00;96459.55;110593;1238;60481;-73
2023/12/21 12:34:04;;;;;;;;;;;;;;;0.88;100.00;96457.64;110483;1238;60434;-73
2023/12/21 12:36:33;;;;;;;;;;;;;;;0.89;100.00;96456.38;110707;1239;72772;-73
2023/12/21 12:39:02;;;;;;;;;;;;;;;0.90;100.00;96452.77;110606;1239;69203;-71
2023/12/21 12:41:32;;;;;;;;;;;;;;;0.91;100.00;96438.77;110576;1239;70353;-71
2023/12/21 12:44:01;;;;;;;;;;;;;;;0.91;100.00;96440.15;110630;1239;60543;-71
2023/12/21 12:46:30;;;;;;;;;;;;;;;0.93;100.00;96439.02;110710;1239;60393;-71